Cantonment, Florida
Current Conditions -  °F | °C
As of 9:53 AM on Thursday 23 Oct 2014 (Local Time) from KPNS Reporting Station
Clear Clear  
Wind Chill: 63°   Ceiling: Unl
Heat Index: 63°   Visibility: 10mi
Dew Point: 48°   Wind: 7mph
Humidity: 58%   Direction: 40°NE
Pressure: 30.11"   Gusts: NA
Location:  30.61°N, 87.34°W
Report Text: KPNS 231453Z 04006KT 10SM CLR 17/09 A3011 RMK AO2 SLP199 T01720089 53012
Loading
Personal Weather Stations






























Interactive Weather Map
Tropical Storm Tracking
New forecast layout! Learn more

10-Day Weather Forecast

Advertisements
Track Severe Weather on mobile